sensor_id;sensor_type;location;lat;lon;timestamp;temperature;humidity
3628;DHT22;1830;49.000;12.074;2023-04-24T00:00:13;11.40;99.90
3628;DHT22;1830;49.000;12.074;2023-04-24T00:02:41;11.30;99.90
3628;DHT22;1830;49.000;12.074;2023-04-24T00:05:12;11.40;99.90
3628;DHT22;1830;49.000;12.074;2023-04-24T00:07:39;11.40;99.90
3628;DHT22;1830;49.000;12.074;2023-04-24T00:10:07;11.30;99.90
3628;DHT22;1830;49.000;12.074;2023-04-24T00:12:34;11.30;99.90
3628;DHT22;1830;49.000;12.074;2023-04-24T00:15:03;11.30;99.90
3628;DHT22;1830;49.000;12.074;2023-04-24T00:17:30;11.20;99.90
3628;DHT22;1830;49.000;12.074;2023-04-24T00:19:57;11.20;99.90
3628;DHT22;1830;49.000;12.074;2023-04-24T00:22:24;11.30;99.90
3628;DHT22;1830;49.000;12.074;2023-04-24T00:24:51;11.40;99.90
3628;DHT22;1830;49.000;12.074;2023-04-24T00:27:18;11.40;99.90
3628;DHT22;1830;49.000;12.074;2023-04-24T00:29:45;11.40;99.90
3628;DHT22;1830;49.000;12.074;2023-04-24T00:32:13;11.40;99.90
3628;DHT22;1830;49.000;12.074;2023-04-24T00:34:40;11.40;99.90
3628;DHT22;1830;49.000;12.074;2023-04-24T00:37:07;11.40;99.90
3628;DHT22;1830;49.000;12.074;2023-04-24T00:39:34;11.30;99.90
3628;DHT22;1830;49.000;12.074;2023-04-24T00:42:01;11.40;99.90
3628;DHT22;1830;49.000;12.074;2023-04-24T00:44:28;11.30;99.90
3628;DHT22;1830;49.000;12.074;2023-04-24T00:46:55;11.20;99.90
3628;DHT22;1830;49.000;12.074;2023-04-24T00:49:23;11.10;99.90
3628;DHT22;1830;49.000;12.074;2023-04-24T00:51:50;11.30;99.90
3628;DHT22;1830;49.000;12.074;2023-04-24T00:54:17;11.30;99.90
3628;DHT22;1830;49.000;12.074;2023-04-24T00:56:45;11.30;99.90
3628;DHT22;1830;49.000;12.074;2023-04-24T00:59:13;11.30;99.90
3628;DHT22;1830;49.000;12.074;2023-04-24T01:01:40;11.30;99.90
3628;DHT22;1830;49.000;12.074;2023-04-24T01:04:09;11.30;99.90
3628;DHT22;1830;49.000;12.074;2023-04-24T01:06:39;11.20;99.90
3628;DHT22;1830;49.000;12.074;2023-04-24T01:09:07;11.30;99.90
3628;DHT22;1830;49.000;12.074;2023-04-24T01:11:34;11.30;99.90
3628;DHT22;1830;49.000;12.074;2023-04-24T01:14:01;11.30;99.90
3628;DHT22;1830;49.000;12.074;2023-04-24T01:16:28;11.40;99.90
3628;DHT22;1830;49.000;12.074;2023-04-24T01:18:55;11.40;99.90
3628;DHT22;1830;49.000;12.074;2023-04-24T01:21:23;11.30;99.90
3628;DHT22;1830;49.000;12.074;2023-04-24T01:23:55;11.30;99.90
3628;DHT22;1830;49.000;12.074;2023-04-24T01:26:22;11.30;99.90
3628;DHT22;1830;49.000;12.074;2023-04-24T01:28:51;11.20;99.90
3628;DHT22;1830;49.000;12.074;2023-04-24T01:31:18;11.30;99.90
3628;DHT22;1830;49.000;12.074;2023-04-24T01:33:45;11.30;99.90
3628;DHT22;1830;49.000;12.074;2023-04-24T01:36:12;11.20;99.90
3628;DHT22;1830;49.000;12.074;2023-04-24T01:38:40;11.20;99.90
3628;DHT22;1830;49.000;12.074;2023-04-24T01:41:08;11.10;99.90
3628;DHT22;1830;49.000;12.074;2023-04-24T01:43:35;11.00;99.90
3628;DHT22;1830;49.000;12.074;2023-04-24T01:46:02;11.00;99.90
3628;DHT22;1830;49.000;12.074;2023-04-24T01:48:28;11.00;99.90
3628;DHT22;1830;49.000;12.074;2023-04-24T01:50:56;10.90;99.90
3628;DHT22;1830;49.000;12.074;2023-04-24T01:53:23;10.90;99.90
3628;DHT22;1830;49.000;12.074;2023-04-24T01:55:50;11.00;99.90
3628;DHT22;1830;49.000;12.074;2023-04-24T01:58:18;11.00;99.90
3628;DHT22;1830;49.000;12.074;2023-04-24T02:00:45;11.00;99.90
3628;DHT22;1830;49.000;12.074;2023-04-24T02:03:12;11.10;99.90
3628;DHT22;1830;49.000;12.074;2023-04-24T02:05:38;11.10;99.90
3628;DHT22;1830;49.000;12.074;2023-04-24T02:08:05;11.00;99.90
3628;DHT22;1830;49.000;12.074;2023-04-24T02:10:32;11.00;99.90
3628;DHT22;1830;49.000;12.074;2023-04-24T02:12:59;11.00;99.90
3628;DHT22;1830;49.000;12.074;2023-04-24T02:15:27;11.00;99.90
3628;DHT22;1830;49.000;12.074;2023-04-24T02:17:54;11.10;99.90
3628;DHT22;1830;49.000;12.074;2023-04-24T02:20:21;11.10;99.90
3628;DHT22;1830;49.000;12.074;2023-04-24T02:22:47;11.10;99.90
3628;DHT22;1830;49.000;12.074;2023-04-24T02:25:14;11.20;99.90
3628;DHT22;1830;49.000;12.074;2023-04-24T02:27:41;11.10;99.90
3628;DHT22;1830;49.000;12.074;2023-04-24T02:30:08;10.90;99.90
3628;DHT22;1830;49.000;12.074;2023-04-24T02:32:37;11.00;99.90
3628;DHT22;1830;49.000;12.074;2023-04-24T02:35:05;11.10;99.90
3628;DHT22;1830;49.000;12.074;2023-04-24T02:37:32;11.10;99.90
3628;DHT22;1830;49.000;12.074;2023-04-24T02:39:58;11.10;99.90
3628;DHT22;1830;49.000;12.074;2023-04-24T02:42:25;11.10;99.90
3628;DHT22;1830;49.000;12.074;2023-04-24T02:44:52;11.00;99.90
3628;DHT22;1830;49.000;12.074;2023-04-24T02:47:19;11.00;99.90
3628;DHT22;1830;49.000;12.074;2023-04-24T02:49:47;11.00;99.90
3628;DHT22;1830;49.000;12.074;2023-04-24T02:52:14;11.00;99.90
3628;DHT22;1830;49.000;12.074;2023-04-24T02:54:42;11.00;99.90
3628;DHT22;1830;49.000;12.074;2023-04-24T02:57:09;11.00;99.90
3628;DHT22;1830;49.000;12.074;2023-04-24T02:59:35;10.90;99.90
3628;DHT22;1830;49.000;12.074;2023-04-24T03:02:02;10.90;99.90
3628;DHT22;1830;49.000;12.074;2023-04-24T03:04:29;10.80;99.90
3628;DHT22;1830;49.000;12.074;2023-04-24T03:06:57;10.80;99.90
3628;DHT22;1830;49.000;12.074;2023-04-24T03:09:24;10.70;99.90
3628;DHT22;1830;49.000;12.074;2023-04-24T03:11:51;10.80;99.90
3628;DHT22;1830;49.000;12.074;2023-04-24T03:14:18;10.80;99.90
3628;DHT22;1830;49.000;12.074;2023-04-24T03:16:44;10.80;99.90
3628;DHT22;1830;49.000;12.074;2023-04-24T03:19:11;10.70;99.90
3628;DHT22;1830;49.000;12.074;2023-04-24T03:21:40;10.70;99.90
3628;DHT22;1830;49.000;12.074;2023-04-24T03:24:10;10.70;99.90
3628;DHT22;1830;49.000;12.074;2023-04-24T03:26:37;10.80;99.90
3628;DHT22;1830;49.000;12.074;2023-04-24T03:29:04;10.70;99.90
3628;DHT22;1830;49.000;12.074;2023-04-24T03:31:31;10.70;99.90
3628;DHT22;1830;49.000;12.074;2023-04-24T03:33:58;10.70;99.90
3628;DHT22;1830;49.000;12.074;2023-04-24T03:36:25;10.50;99.90
3628;DHT22;1830;49.000;12.074;2023-04-24T03:38:51;10.50;99.90
3628;DHT22;1830;49.000;12.074;2023-04-24T03:41:20;10.40;99.90
3628;DHT22;1830;49.000;12.074;2023-04-24T03:43:48;10.40;99.90
3628;DHT22;1830;49.000;12.074;2023-04-24T03:46:15;10.50;99.90
3628;DHT22;1830;49.000;12.074;2023-04-24T03:48:41;10.40;99.90
3628;DHT22;1830;49.000;12.074;2023-04-24T03:51:13;10.50;99.90
3628;DHT22;1830;49.000;12.074;2023-04-24T03:53:39;10.50;99.90
3628;DHT22;1830;49.000;12.074;2023-04-24T03:56:06;10.50;99.90
3628;DHT22;1830;49.000;12.074;2023-04-24T03:58:34;10.60;99.90
3628;DHT22;1830;49.000;12.074;2023-04-24T04:01:04;10.50;99.90
3628;DHT22;1830;49.000;12.074;2023-04-24T04:03:31;10.50;99.90
3628;DHT22;1830;49.000;12.074;2023-04-24T04:05:57;10.40;99.90
3628;DHT22;1830;49.000;12.074;2023-04-24T04:08:24;10.40;99.90
3628;DHT22;1830;49.000;12.074;2023-04-24T04:10:51;10.50;99.90
3628;DHT22;1830;49.000;12.074;2023-04-24T04:13:18;10.40;99.90
3628;DHT22;1830;49.000;12.074;2023-04-24T04:15:46;10.30;99.90
3628;DHT22;1830;49.000;12.074;2023-04-24T04:18:13;10.30;99.90
3628;DHT22;1830;49.000;12.074;2023-04-24T04:20:40;10.30;99.90
3628;DHT22;1830;49.000;12.074;2023-04-24T04:23:07;10.30;99.90
3628;DHT22;1830;49.000;12.074;2023-04-24T04:25:34;10.40;99.90
3628;DHT22;1830;49.000;12.074;2023-04-24T04:28:00;10.30;99.90
3628;DHT22;1830;49.000;12.074;2023-04-24T04:30:27;10.30;99.90
3628;DHT22;1830;49.000;12.074;2023-04-24T04:32:58;10.50;99.90
3628;DHT22;1830;49.000;12.074;2023-04-24T04:35:25;10.50;99.90
3628;DHT22;1830;49.000;12.074;2023-04-24T04:37:52;10.50;99.90
3628;DHT22;1830;49.000;12.074;2023-04-24T04:40:19;10.50;99.90
3628;DHT22;1830;49.000;12.074;2023-04-24T04:42:46;10.50;99.90
3628;DHT22;1830;49.000;12.074;2023-04-24T04:45:13;10.50;99.90
3628;DHT22;1830;49.000;12.074;2023-04-24T04:47:42;10.40;99.90
3628;DHT22;1830;49.000;12.074;2023-04-24T04:50:11;10.40;99.90
3628;DHT22;1830;49.000;12.074;2023-04-24T04:52:38;10.40;99.90
3628;DHT22;1830;49.000;12.074;2023-04-24T04:55:06;10.20;99.90
3628;DHT22;1830;49.000;12.074;2023-04-24T04:57:33;10.10;99.90
3628;DHT22;1830;49.000;12.074;2023-04-24T05:00:00;10.10;99.90
3628;DHT22;1830;49.000;12.074;2023-04-24T05:02:26;10.10;99.90
3628;DHT22;1830;49.000;12.074;2023-04-24T05:04:53;10.20;99.90
3628;DHT22;1830;49.000;12.074;2023-04-24T05:07:21;10.10;99.90
3628;DHT22;1830;49.000;12.074;2023-04-24T05:09:48;10.10;99.90
3628;DHT22;1830;49.000;12.074;2023-04-24T05:12:16;10.10;99.90
3628;DHT22;1830;49.000;12.074;2023-04-24T05:14:43;10.00;99.90
3628;DHT22;1830;49.000;12.074;2023-04-24T05:17:10;10.10;99.90
3628;DHT22;1830;49.000;12.074;2023-04-24T05:19:37;10.10;99.90
3628;DHT22;1830;49.000;12.074;2023-04-24T05:22:04;10.10;99.90
3628;DHT22;1830;49.000;12.074;2023-04-24T05:24:33;10.20;99.90
3628;DHT22;1830;49.000;12.074;2023-04-24T05:27:01;10.20;99.90
3628;DHT22;1830;49.000;12.074;2023-04-24T05:29:28;10.10;99.90
3628;DHT22;1830;49.000;12.074;2023-04-24T05:31:56;10.10;99.90
3628;DHT22;1830;49.000;12.074;2023-04-24T05:34:23;10.10;99.90
3628;DHT22;1830;49.000;12.074;2023-04-24T05:36:50;10.00;99.90
3628;DHT22;1830;49.000;12.074;2023-04-24T05:39:17;10.10;99.90
3628;DHT22;1830;49.000;12.074;2023-04-24T05:41:46;10.10;99.90
3628;DHT22;1830;49.000;12.074;2023-04-24T05:44:13;10.10;99.90
3628;DHT22;1830;49.000;12.074;2023-04-24T05:46:39;10.00;99.90
3628;DHT22;1830;49.000;12.074;2023-04-24T05:49:06;10.10;99.90
3628;DHT22;1830;49.000;12.074;2023-04-24T05:51:33;10.10;99.90
3628;DHT22;1830;49.000;12.074;2023-04-24T05:54:00;10.10;99.90
3628;DHT22;1830;49.000;12.074;2023-04-24T05:56:28;10.10;99.90
3628;DHT22;1830;49.000;12.074;2023-04-24T05:58:57;10.20;99.90
3628;DHT22;1830;49.000;12.074;2023-04-24T06:01:24;10.20;99.90
3628;DHT22;1830;49.000;12.074;2023-04-24T06:03:52;10.20;99.90
3628;DHT22;1830;49.000;12.074;2023-04-24T06:06:19;10.40;99.90
3628;DHT22;1830;49.000;12.074;2023-04-24T06:08:46;10.40;99.90
3628;DHT22;1830;49.000;12.074;2023-04-24T06:11:13;10.30;99.90
3628;DHT22;1830;49.000;12.074;2023-04-24T06:13:39;10.30;99.90
3628;DHT22;1830;49.000;12.074;2023-04-24T06:16:08;10.30;99.90
3628;DHT22;1830;49.000;12.074;2023-04-24T06:18:35;10.50;99.90
3628;DHT22;1830;49.000;12.074;2023-04-24T06:21:01;10.60;99.90
3628;DHT22;1830;49.000;12.074;2023-04-24T06:23:28;10.50;99.90
3628;DHT22;1830;49.000;12.074;2023-04-24T06:25:57;10.50;99.90
3628;DHT22;1830;49.000;12.074;2023-04-24T06:28:24;10.60;99.90
3628;DHT22;1830;49.000;12.074;2023-04-24T06:30:51;10.60;99.90
3628;DHT22;1830;49.000;12.074;2023-04-24T06:33:19;10.60;99.90
3628;DHT22;1830;49.000;12.074;2023-04-24T06:35:46;10.70;99.90
3628;DHT22;1830;49.000;12.074;2023-04-24T06:38:13;10.80;99.90
3628;DHT22;1830;49.000;12.074;2023-04-24T06:40:41;10.90;99.90
3628;DHT22;1830;49.000;12.074;2023-04-24T06:43:08;10.70;99.90
3628;DHT22;1830;49.000;12.074;2023-04-24T06:45:35;10.80;99.90
3628;DHT22;1830;49.000;12.074;2023-04-24T06:48:02;10.90;99.90
3628;DHT22;1830;49.000;12.074;2023-04-24T06:50:36;11.00;99.90
3628;DHT22;1830;49.000;12.074;2023-04-24T06:53:02;11.10;99.90
3628;DHT22;1830;49.000;12.074;2023-04-24T06:55:29;10.90;99.90
3628;DHT22;1830;49.000;12.074;2023-04-24T06:57:56;11.00;99.90
3628;DHT22;1830;49.000;12.074;2023-04-24T07:00:23;10.80;99.90
3628;DHT22;1830;49.000;12.074;2023-04-24T07:02:50;10.90;99.90
3628;DHT22;1830;49.000;12.074;2023-04-24T07:05:17;10.80;99.90
3628;DHT22;1830;49.000;12.074;2023-04-24T07:07:47;11.00;99.90
3628;DHT22;1830;49.000;12.074;2023-04-24T07:10:16;10.90;99.90
3628;DHT22;1830;49.000;12.074;2023-04-24T07:12:43;11.00;99.90
3628;DHT22;1830;49.000;12.074;2023-04-24T07:15:10;11.00;99.90
3628;DHT22;1830;49.000;12.074;2023-04-24T07:17:37;11.00;99.90
3628;DHT22;1830;49.000;12.074;2023-04-24T07:20:09;11.10;99.90
3628;DHT22;1830;49.000;12.074;2023-04-24T07:22:37;11.20;99.90
3628;DHT22;1830;49.000;12.074;2023-04-24T07:25:06;11.30;99.90
3628;DHT22;1830;49.000;12.074;2023-04-24T07:27:33;11.30;99.90
3628;DHT22;1830;49.000;12.074;2023-04-24T07:30:00;11.20;99.90
3628;DHT22;1830;49.000;12.074;2023-04-24T07:32:27;11.40;99.90
3628;DHT22;1830;49.000;12.074;2023-04-24T07:34:54;11.50;99.90
3628;DHT22;1830;49.000;12.074;2023-04-24T07:37:20;11.40;99.90
3628;DHT22;1830;49.000;12.074;2023-04-24T07:39:47;11.50;99.90
3628;DHT22;1830;49.000;12.074;2023-04-24T07:42:15;11.40;99.90
3628;DHT22;1830;49.000;12.074;2023-04-24T07:44:42;11.50;99.90
3628;DHT22;1830;49.000;12.074;2023-04-24T07:47:09;11.70;99.90
3628;DHT22;1830;49.000;12.074;2023-04-24T07:49:36;11.80;99.90
3628;DHT22;1830;49.000;12.074;2023-04-24T07:52:03;11.90;99.90
3628;DHT22;1830;49.000;12.074;2023-04-24T07:54:30;11.90;99.90
3628;DHT22;1830;49.000;12.074;2023-04-24T07:56:57;11.80;99.90
3628;DHT22;1830;49.000;12.074;2023-04-24T07:59:25;11.90;99.90
3628;DHT22;1830;49.000;12.074;2023-04-24T08:01:51;11.60;99.90
3628;DHT22;1830;49.000;12.074;2023-04-24T08:04:19;11.80;99.90
3628;DHT22;1830;49.000;12.074;2023-04-24T08:06:47;11.90;99.90
3628;DHT22;1830;49.000;12.074;2023-04-24T08:09:14;11.90;99.90
3628;DHT22;1830;49.000;12.074;2023-04-24T08:11:40;12.10;99.90
3628;DHT22;1830;49.000;12.074;2023-04-24T08:14:07;12.20;99.90
3628;DHT22;1830;49.000;12.074;2023-04-24T08:16:35;12.30;99.90
3628;DHT22;1830;49.000;12.074;2023-04-24T08:19:02;12.10;99.90
3628;DHT22;1830;49.000;12.074;2023-04-24T08:21:29;12.10;99.90
3628;DHT22;1830;49.000;12.074;2023-04-24T08:23:56;12.10;99.90
3628;DHT22;1830;49.000;12.074;2023-04-24T08:26:22;12.50;99.90
3628;DHT22;1830;49.000;12.074;2023-04-24T08:28:50;12.60;99.90
3628;DHT22;1830;49.000;12.074;2023-04-24T08:31:17;12.40;99.90
3628;DHT22;1830;49.000;12.074;2023-04-24T08:33:45;12.60;99.90
3628;DHT22;1830;49.000;12.074;2023-04-24T08:36:12;12.50;99.90
3628;DHT22;1830;49.000;12.074;2023-04-24T08:38:39;12.10;99.90
3628;DHT22;1830;49.000;12.074;2023-04-24T08:41:07;11.60;99.90
3628;DHT22;1830;49.000;12.074;2023-04-24T08:43:35;11.10;99.90
3628;DHT22;1830;49.000;12.074;2023-04-24T08:46:04;11.00;99.90
3628;DHT22;1830;49.000;12.074;2023-04-24T08:48:31;10.50;99.90
3628;DHT22;1830;49.000;12.074;2023-04-24T08:50:59;10.40;99.90
3628;DHT22;1830;49.000;12.074;2023-04-24T08:53:27;10.30;99.90
3628;DHT22;1830;49.000;12.074;2023-04-24T08:55:55;10.50;99.90
3628;DHT22;1830;49.000;12.074;2023-04-24T08:58:24;10.40;99.90
3628;DHT22;1830;49.000;12.074;2023-04-24T09:00:51;10.50;99.90
3628;DHT22;1830;49.000;12.074;2023-04-24T09:03:19;10.70;99.90
3628;DHT22;1830;49.000;12.074;2023-04-24T09:05:48;10.70;99.90
3628;DHT22;1830;49.000;12.074;2023-04-24T09:08:18;10.80;99.90
3628;DHT22;1830;49.000;12.074;2023-04-24T09:10:45;10.90;99.90
3628;DHT22;1830;49.000;12.074;2023-04-24T09:13:13;11.00;99.90
3628;DHT22;1830;49.000;12.074;2023-04-24T09:15:41;11.10;99.90
3628;DHT22;1830;49.000;12.074;2023-04-24T09:18:08;11.10;99.90
3628;DHT22;1830;49.000;12.074;2023-04-24T09:20:34;11.30;99.90
3628;DHT22;1830;49.000;12.074;2023-04-24T09:23:01;11.40;99.90
3628;DHT22;1830;49.000;12.074;2023-04-24T09:25:33;11.50;99.90
3628;DHT22;1830;49.000;12.074;2023-04-24T09:28:01;11.60;99.90
3628;DHT22;1830;49.000;12.074;2023-04-24T09:30:29;11.80;99.90
3628;DHT22;1830;49.000;12.074;2023-04-24T09:33:12;11.80;99.90
3628;DHT22;1830;49.000;12.074;2023-04-24T09:35:41;11.80;99.90
3628;DHT22;1830;49.000;12.074;2023-04-24T09:38:08;11.90;99.90
3628;DHT22;1830;49.000;12.074;2023-04-24T09:40:37;11.80;99.90
3628;DHT22;1830;49.000;12.074;2023-04-24T09:43:04;11.80;99.90
3628;DHT22;1830;49.000;12.074;2023-04-24T09:45:35;12.00;99.90
3628;DHT22;1830;49.000;12.074;2023-04-24T09:48:02;12.10;99.90
3628;DHT22;1830;49.000;12.074;2023-04-24T09:50:31;12.10;99.90
3628;DHT22;1830;49.000;12.074;2023-04-24T09:53:02;12.10;99.90
3628;DHT22;1830;49.000;12.074;2023-04-24T09:55:30;12.10;99.90
3628;DHT22;1830;49.000;12.074;2023-04-24T09:57:59;11.90;99.90
3628;DHT22;1830;49.000;12.074;2023-04-24T10:00:27;11.90;99.90
3628;DHT22;1830;49.000;12.074;2023-04-24T10:02:56;11.80;99.90
3628;DHT22;1830;49.000;12.074;2023-04-24T10:05:24;11.90;99.90
3628;DHT22;1830;49.000;12.074;2023-04-24T10:07:52;12.00;99.90
3628;DHT22;1830;49.000;12.074;2023-04-24T10:10:22;12.10;99.90
3628;DHT22;1830;49.000;12.074;2023-04-24T10:12:51;12.10;99.90
3628;DHT22;1830;49.000;12.074;2023-04-24T10:15:20;12.10;99.90
3628;DHT22;1830;49.000;12.074;2023-04-24T10:17:48;12.20;99.90
3628;DHT22;1830;49.000;12.074;2023-04-24T10:20:18;12.30;99.90
3628;DHT22;1830;49.000;12.074;2023-04-24T10:22:58;12.40;99.90
3628;DHT22;1830;49.000;12.074;2023-04-24T10:25:28;12.50;99.90
3628;DHT22;1830;49.000;12.074;2023-04-24T10:27:55;12.40;99.90
3628;DHT22;1830;49.000;12.074;2023-04-24T10:30:27;12.30;99.90
3628;DHT22;1830;49.000;12.074;2023-04-24T10:32:54;12.40;99.90
3628;DHT22;1830;49.000;12.074;2023-04-24T10:35:21;12.40;99.90
3628;DHT22;1830;49.000;12.074;2023-04-24T10:37:58;12.30;99.90
3628;DHT22;1830;49.000;12.074;2023-04-24T10:40:27;12.30;99.90
3628;DHT22;1830;49.000;12.074;2023-04-24T10:43:03;12.20;99.90
3628;DHT22;1830;49.000;12.074;2023-04-24T10:45:33;12.40;99.90
3628;DHT22;1830;49.000;12.074;2023-04-24T10:48:02;12.50;99.90
3628;DHT22;1830;49.000;12.074;2023-04-24T10:50:42;12.60;99.90
3628;DHT22;1830;49.000;12.074;2023-04-24T10:53:15;12.70;99.90
3628;DHT22;1830;49.000;12.074;2023-04-24T10:55:44;12.80;99.90
3628;DHT22;1830;49.000;12.074;2023-04-24T10:58:12;12.80;99.90
3628;DHT22;1830;49.000;12.074;2023-04-24T11:00:42;12.90;99.90
3628;DHT22;1830;49.000;12.074;2023-04-24T11:03:23;13.00;99.90
3628;DHT22;1830;49.000;12.074;2023-04-24T11:05:53;13.00;99.90
3628;DHT22;1830;49.000;12.074;2023-04-24T11:08:26;12.90;99.90
3628;DHT22;1830;49.000;12.074;2023-04-24T11:11:02;13.00;99.90
3628;DHT22;1830;49.000;12.074;2023-04-24T11:16:32;12.90;99.90
3628;DHT22;1830;49.000;12.074;2023-04-24T11:19:05;13.00;99.90
3628;DHT22;1830;49.000;12.074;2023-04-24T11:21:38;13.00;99.90
3628;DHT22;1830;49.000;12.074;2023-04-24T11:24:26;12.90;99.90
3628;DHT22;1830;49.000;12.074;2023-04-24T11:26:54;12.80;99.90
3628;DHT22;1830;49.000;12.074;2023-04-24T11:29:22;12.60;99.90
3628;DHT22;1830;49.000;12.074;2023-04-24T11:31:51;12.40;99.90
3628;DHT22;1830;49.000;12.074;2023-04-24T11:34:18;12.10;99.90
3628;DHT22;1830;49.000;12.074;2023-04-24T11:36:46;12.00;99.90
3628;DHT22;1830;49.000;12.074;2023-04-24T11:39:13;11.80;99.90
3628;DHT22;1830;49.000;12.074;2023-04-24T11:41:40;11.80;99.90
3628;DHT22;1830;49.000;12.074;2023-04-24T11:44:08;11.60;99.90
3628;DHT22;1830;49.000;12.074;2023-04-24T11:46:35;11.40;99.90
3628;DHT22;1830;49.000;12.074;2023-04-24T11:49:04;11.70;99.90
3628;DHT22;1830;49.000;12.074;2023-04-24T11:51:31;11.70;99.90
3628;DHT22;1830;49.000;12.074;2023-04-24T11:53:58;11.80;99.90
3628;DHT22;1830;49.000;12.074;2023-04-24T11:56:25;12.00;99.90
3628;DHT22;1830;49.000;12.074;2023-04-24T11:58:52;12.20;99.90
3628;DHT22;1830;49.000;12.074;2023-04-24T12:01:20;12.30;99.90
3628;DHT22;1830;49.000;12.074;2023-04-24T12:03:48;12.40;99.90
3628;DHT22;1830;49.000;12.074;2023-04-24T12:06:17;12.60;99.90
3628;DHT22;1830;49.000;12.074;2023-04-24T12:08:48;12.90;99.90
3628;DHT22;1830;49.000;12.074;2023-04-24T12:11:16;13.30;99.90
3628;DHT22;1830;49.000;12.074;2023-04-24T12:13:44;13.40;99.90
3628;DHT22;1830;49.000;12.074;2023-04-24T12:16:11;13.70;99.90
3628;DHT22;1830;49.000;12.074;2023-04-24T12:18:42;13.80;99.90
3628;DHT22;1830;49.000;12.074;2023-04-24T12:21:18;13.70;99.90
3628;DHT22;1830;49.000;12.074;2023-04-24T12:23:45;13.50;99.90
3628;DHT22;1830;49.000;12.074;2023-04-24T12:26:12;13.30;99.90
3628;DHT22;1830;49.000;12.074;2023-04-24T12:28:42;13.10;99.90
3628;DHT22;1830;49.000;12.074;2023-04-24T12:31:09;13.10;99.90
3628;DHT22;1830;49.000;12.074;2023-04-24T12:33:36;13.10;99.90
3628;DHT22;1830;49.000;12.074;2023-04-24T12:36:04;13.20;99.90
3628;DHT22;1830;49.000;12.074;2023-04-24T12:38:33;13.70;99.90
3628;DHT22;1830;49.000;12.074;2023-04-24T12:41:07;14.10;99.90
3628;DHT22;1830;49.000;12.074;2023-04-24T12:43:34;14.10;99.90
3628;DHT22;1830;49.000;12.074;2023-04-24T12:46:01;13.90;99.50
3628;DHT22;1830;49.000;12.074;2023-04-24T12:48:29;13.80;99.90
3628;DHT22;1830;49.000;12.074;2023-04-24T12:50:57;13.70;99.90
3628;DHT22;1830;49.000;12.074;2023-04-24T12:53:27;13.80;99.90
3628;DHT22;1830;49.000;12.074;2023-04-24T12:55:56;13.90;99.90
3628;DHT22;1830;49.000;12.074;2023-04-24T12:58:23;14.30;99.30
3628;DHT22;1830;49.000;12.074;2023-04-24T13:00:50;14.30;99.90
3628;DHT22;1830;49.000;12.074;2023-04-24T13:03:17;14.30;97.90
3628;DHT22;1830;49.000;12.074;2023-04-24T13:05:44;14.20;98.20
3628;DHT22;1830;49.000;12.074;2023-04-24T13:08:11;13.90;99.30
3628;DHT22;1830;49.000;12.074;2023-04-24T13:10:39;13.80;98.60
3628;DHT22;1830;49.000;12.074;2023-04-24T13:13:08;13.80;98.20
3628;DHT22;1830;49.000;12.074;2023-04-24T13:15:35;13.70;97.80
3628;DHT22;1830;49.000;12.074;2023-04-24T13:18:02;13.40;97.60
3628;DHT22;1830;49.000;12.074;2023-04-24T13:20:29;13.30;97.50
3628;DHT22;1830;49.000;12.074;2023-04-24T13:22:55;13.10;97.80
3628;DHT22;1830;49.000;12.074;2023-04-24T13:25:22;13.50;98.10
3628;DHT22;1830;49.000;12.074;2023-04-24T13:27:50;14.00;96.60
3628;DHT22;1830;49.000;12.074;2023-04-24T13:30:18;14.00;95.80
3628;DHT22;1830;49.000;12.074;2023-04-24T13:32:45;14.00;96.00
3628;DHT22;1830;49.000;12.074;2023-04-24T13:35:12;14.10;96.00
3628;DHT22;1830;49.000;12.074;2023-04-24T13:37:38;14.10;95.00
3628;DHT22;1830;49.000;12.074;2023-04-24T13:40:06;14.00;94.60
3628;DHT22;1830;49.000;12.074;2023-04-24T13:42:33;14.00;95.20
3628;DHT22;1830;49.000;12.074;2023-04-24T13:45:00;13.90;95.20
3628;DHT22;1830;49.000;12.074;2023-04-24T13:47:28;14.00;93.80
3628;DHT22;1830;49.000;12.074;2023-04-24T13:49:55;14.10;92.90
3628;DHT22;1830;49.000;12.074;2023-04-24T13:52:22;13.90;92.90
3628;DHT22;1830;49.000;12.074;2023-04-24T13:54:49;13.60;92.30
3628;DHT22;1830;49.000;12.074;2023-04-24T13:57:15;13.70;92.60
3628;DHT22;1830;49.000;12.074;2023-04-24T13:59:43;13.70;92.80
3628;DHT22;1830;49.000;12.074;2023-04-24T14:02:10;13.70;93.30
3628;DHT22;1830;49.000;12.074;2023-04-24T14:04:38;13.60;93.30
3628;DHT22;1830;49.000;12.074;2023-04-24T14:07:05;13.70;93.00
3628;DHT22;1830;49.000;12.074;2023-04-24T14:09:33;13.60;93.50
3628;DHT22;1830;49.000;12.074;2023-04-24T14:12:00;13.50;93.80
3628;DHT22;1830;49.000;12.074;2023-04-24T14:14:28;13.60;93.80
3628;DHT22;1830;49.000;12.074;2023-04-24T14:16:55;13.50;93.90
3628;DHT22;1830;49.000;12.074;2023-04-24T14:19:22;13.60;94.50
3628;DHT22;1830;49.000;12.074;2023-04-24T14:21:50;13.60;94.20
3628;DHT22;1830;49.000;12.074;2023-04-24T14:24:18;13.60;94.70
3628;DHT22;1830;49.000;12.074;2023-04-24T14:26:45;13.70;95.30
3628;DHT22;1830;49.000;12.074;2023-04-24T14:29:11;13.80;95.10
3628;DHT22;1830;49.000;12.074;2023-04-24T14:31:38;14.00;95.40
3628;DHT22;1830;49.000;12.074;2023-04-24T14:34:05;14.00;95.50
3628;DHT22;1830;49.000;12.074;2023-04-24T14:36:32;14.00;95.00
3628;DHT22;1830;49.000;12.074;2023-04-24T14:39:01;14.00;95.30
3628;DHT22;1830;49.000;12.074;2023-04-24T14:41:31;13.80;95.60
3628;DHT22;1830;49.000;12.074;2023-04-24T14:44:01;13.70;94.60
3628;DHT22;1830;49.000;12.074;2023-04-24T14:46:27;13.50;94.00
3628;DHT22;1830;49.000;12.074;2023-04-24T14:48:54;13.40;92.80
3628;DHT22;1830;49.000;12.074;2023-04-24T14:51:21;13.30;92.10
3628;DHT22;1830;49.000;12.074;2023-04-24T14:53:48;13.00;92.50
3628;DHT22;1830;49.000;12.074;2023-04-24T14:56:16;12.80;92.90
3628;DHT22;1830;49.000;12.074;2023-04-24T14:58:43;12.80;93.80
3628;DHT22;1830;49.000;12.074;2023-04-24T15:01:10;12.70;93.50
3628;DHT22;1830;49.000;12.074;2023-04-24T15:03:37;12.60;94.20
3628;DHT22;1830;49.000;12.074;2023-04-24T15:06:04;12.70;93.90
3628;DHT22;1830;49.000;12.074;2023-04-24T15:08:32;12.80;94.10
3628;DHT22;1830;49.000;12.074;2023-04-24T15:10:59;13.10;94.50
3628;DHT22;1830;49.000;12.074;2023-04-24T15:13:27;13.20;94.00
3628;DHT22;1830;49.000;12.074;2023-04-24T15:15:54;13.10;94.20
3628;DHT22;1830;49.000;12.074;2023-04-24T15:18:21;13.00;94.10
3628;DHT22;1830;49.000;12.074;2023-04-24T15:20:47;12.90;94.40
3628;DHT22;1830;49.000;12.074;2023-04-24T15:23:14;12.40;94.50
3628;DHT22;1830;49.000;12.074;2023-04-24T15:25:41;12.60;96.00
3628;DHT22;1830;49.000;12.074;2023-04-24T15:28:09;12.70;95.90
3628;DHT22;1830;49.000;12.074;2023-04-24T15:30:38;12.70;95.70
3628;DHT22;1830;49.000;12.074;2023-04-24T15:33:06;12.90;95.30
3628;DHT22;1830;49.000;12.074;2023-04-24T15:35:33;12.60;95.40
3628;DHT22;1830;49.000;12.074;2023-04-24T15:38:01;12.70;95.60
3628;DHT22;1830;49.000;12.074;2023-04-24T15:40:29;13.10;95.10
3628;DHT22;1830;49.000;12.074;2023-04-24T15:42:56;13.20;94.90
3628;DHT22;1830;49.000;12.074;2023-04-24T15:45:23;13.30;95.10
3628;DHT22;1830;49.000;12.074;2023-04-24T15:47:51;13.20;94.80
3628;DHT22;1830;49.000;12.074;2023-04-24T15:50:19;13.10;94.60